• Join FlightAware (Why Join?)
  • Login
  • US Flag 
10:37PM EST


 

Airport Tracker/Info


-or-


 

Live Flight TrackerFlight Track Log ✈ SWA2852 ✈ 28-Apr-2013 ✈ KMCO - KROC

Flight Track Log - Related Links

Times and Time Zones

All times are in EDT time to prevent confusion due to time zone crossing. See the SWA2852 flight status page for this flight to view local times or setup timezone preferences in your user account.

Time Position Orientation Groundspeed Altitude Reporting Facility
EDT Latitude Longitude Course Direction KTS MPH feet Rate Location/Type
12:47PM 28.4167 -81.3000 139° Southeast 157 181 500  Level Orlando TRACON
12:47PM 28.4000 -81.2833 139° Southeast 155 178 1,400 2,100 Climbing Orlando TRACON
12:48PM 28.3500 -81.2500 150° Southeast 213 245 3,700 2,340 Climbing Orlando TRACON
12:49PM 28.3833 -81.2000 53° Northeast 232 267 6,400 2,460 Climbing Orlando TRACON
12:51PM 28.5547 -81.2431 348° North 285 328 11,800 2,520 Climbing Jacksonville Center
12:52PM 28.6531 -81.2719 346° North 322 371 14,800 3,000 Climbing Jacksonville Center
12:53PM 28.7600 -81.3011 347° North 367 422 17,800 3,000 Climbing Jacksonville Center
12:54PM 28.8708 -81.3300 347° North 384 442 20,900 2,640 Climbing Jacksonville Center
12:55PM 28.9839 -81.3592 347° North 403 464 23,100 2,040 Climbing Jacksonville Center
12:56PM 29.0969 -81.3908 346° North 414 476 25,000 1,200 Climbing Jacksonville Center
12:57PM 29.2119 -81.4008 356° North 414 476 25,600 480 Climbing Jacksonville Center
12:58PM 29.3350 -81.4014 360° North 419 482 26,000 180 Climbing Jacksonville Center
12:59PM 29.4539 -81.3994 North 424 488 26,000 780 Level Jacksonville Center
01:00PM 29.5708 -81.4025 359° North 424 488 27,600 1,680 Climbing Jacksonville Center
01:01PM 29.6900 -81.4056 359° North 424 488 29,400 1,620 Climbing Jacksonville Center
01:02PM 29.8153 -81.4083 359° North 430 495 30,900 1,620 Climbing Jacksonville Center
01:03PM 29.9406 -81.4114 359° North 441 507 32,700 1,920 Climbing Jacksonville Center
01:04PM 30.0617 -81.4119 360° North 441 507 34,800 1,440 Climbing Jacksonville Center
01:05PM 30.1722 -81.4150 359° North 441 507 35,600 1,500 Climbing Jacksonville Center
01:06PM 30.2872 -81.4131 North 433 498 37,800 1,680 Climbing Jacksonville Center
01:07PM 30.3978 -81.4161 359° North 408 470 39,000 600 Climbing Jacksonville Center
01:08PM 30.5064 -81.4219 357° North 396 456 39,000  Level Jacksonville Center
01:09PM 30.6150 -81.4250 359° North 386 444 39,000  Level Jacksonville Center
01:10PM 30.7258 -81.4256 360° North 379 436 39,000  Level Jacksonville Center
01:11PM 30.8447 -81.4286 359° North 384 442 39,000  Level Jacksonville Center
01:12PM 30.9431 -81.4319 358° North 384 442 39,000  Level Jacksonville Center
01:13PM 31.0514 -81.4303 North 384 442 39,000  Level Jacksonville Center
01:14PM 31.1600 -81.4164 North 384 442 39,000  Level Jacksonville Center
01:15PM 31.2703 -81.4003 North 384 442 39,000  Level Jacksonville Center
01:16PM 31.3789 -81.3839 North 389 448 39,000  Level Jacksonville Center
01:17PM 31.4997 -81.3672 North 389 448 39,000  Level Jacksonville Center
01:18PM 31.6081 -81.3558 North 389 448 39,000  Level Jacksonville Center
01:19PM 31.7186 -81.3417 North 389 448 39,000  Level Jacksonville Center
01:20PM 31.8292 -81.3253 North 389 448 39,000  Level Jacksonville Center
01:21PM 31.9292 -81.3161 North 395 455 39,000  Level Jacksonville Center
01:22PM 32.0394 -81.2969 North 395 455 39,000  Level Jacksonville Center
01:23PM 32.1522 -81.2878 North 395 455 39,000  Level Jacksonville Center
01:24PM 32.2625 -81.2686 North 395 455 39,000  Level Jacksonville Center
01:25PM 32.3731 -81.2567 North 395 455 39,000  Level Jacksonville Center
01:26PM 32.4919 -81.2425 North 401 461 39,000  Level Jacksonville Center
01:27PM 32.5939 -81.2281 North 401 461 39,000  Level Jacksonville Center
01:28PM 32.7044 -81.2114 North 406 467 39,000  Level Jacksonville Center
01:29PM 32.8169 -81.1969 North 406 467 39,000  Level Jacksonville Center
01:30PM 32.9275 -81.1825 North 406 467 39,000  Level Jacksonville Center
01:31PM 33.0419 -81.1678 North 406 467 39,000  Level Jacksonville Center
01:32PM 33.1608 -81.1506 North 406 467 39,000  Level Jacksonville Center
01:33PM 33.2733 -81.1361 North 401 461 39,000  Level Jacksonville Center
01:34PM 33.3858 -81.1189 North 406 467 39,000  Level Jacksonville Center
01:35PM 33.5003 -81.1042 North 406 467 39,000  Level Jacksonville Center
01:36PM 33.6106 -81.0894 North 406 467 39,000  Level Jacksonville Center
01:37PM 33.7253 -81.0747 North 406 467 39,000  Level Jacksonville Center
01:38PM 33.8294 -81.0575 North 406 467 39,000  Level Jacksonville Center
01:39PM 33.9542 -81.0425 North 411 473 39,000 -300 Level Jacksonville Center
01:40PM 34.0689 -81.0325 North 411 473 38,500 -600 Descending Jacksonville Center
01:41PM 34.1878 -81.0225 North 411 473 37,800 -780 Descending Jacksonville Center
01:42PM 34.3003 -81.0125 North 411 473 37,000 -300 Descending Jacksonville Center
01:44PM 34.5222 -80.9881 North 434 499 37,000  Level Atlanta Center
01:45PM 34.6406 -80.9636 10° North 442 509 37,000  Level Atlanta Center
01:46PM 34.7586 -80.9214 16° North 436 502 37,000  Level Atlanta Center
01:47PM 34.8786 -80.8789 16° North 436 502 37,000  Level Atlanta Center
01:48PM 34.9942 -80.8392 16° North 436 502 37,000  Level Atlanta Center
01:49PM 35.1019 -80.8019 16° North 429 494 37,000  Level Atlanta Center
01:50PM 35.2217 -80.7567 17° North 438 504 37,000  Level Atlanta Center
01:51PM 35.3417 -80.7161 15° North 438 504 37,000  Level Atlanta Center
01:52PM 35.4594 -80.6731 17° North 438 504 37,000  Level Atlanta Center
01:53PM 35.5814 -80.6325 15° North 438 504 37,000  Level Atlanta Center
01:54PM 35.7011 -80.5889 16° North 443 510 37,000  Level Atlanta Center
01:55PM 35.8208 -80.5456 16° North 448 516 37,000  Level Atlanta Center
01:56PM 35.9428 -80.5044 15° North 449 517 37,000  Level Atlanta Center
01:57PM 36.0603 -80.4583 18° North 449 517 37,000  Level Atlanta Center
01:59PM 36.3300 -80.3619 16° North 459 528 37,000  Level Washington Center
02:00PM 36.4506 -80.3253 14° North 449 517 37,000  Level Washington Center
02:01PM 36.5628 -80.2803 18° North 449 517 37,000  Level Washington Center
02:02PM 36.6856 -80.2386 15° North 449 517 37,000  Level Washington Center
02:03PM 36.8061 -80.1939 17° North 454 522 37,000  Level Washington Center
02:04PM 36.9331 -80.1494 16° North 454 522 37,000  Level Washington Center
02:05PM 37.0683 -80.1003 16° North 454 522 37,000  Level Washington Center
02:06PM 37.1911 -80.0581 15° North 459 528 37,000  Level Washington Center
02:07PM 37.3181 -80.0106 17° North 459 528 37,000  Level Washington Center
02:08PM 37.4428 -79.9656 16° North 459 528 37,000  Level Washington Center
02:09PM 37.5653 -79.9228 15° North 459 528 37,000  Level Washington Center
02:10PM 37.6878 -79.8772 16° North 459 528 37,000  Level Washington Center
02:11PM 37.8000 -79.8336 17° North 465 535 37,000  Level Washington Center
02:12PM 37.9225 -79.7881 16° North 460 529 37,000  Level Washington Center
02:13PM 38.0453 -79.7419 16° North 460 529 37,000  Level Washington Center
02:14PM 38.1697 -79.6961 16° North 460 529 37,000  Level Washington Center
02:15PM 38.2922 -79.6500 16° North 460 529 37,000  Level Washington Center
02:16PM 38.4275 -79.5964 17° North 460 529 37,000  Level Washington Center
02:17PM 38.5564 -79.5503 16° North 460 529 37,000  Level Washington Center
02:18PM 38.6808 -79.5011 17° North 460 529 37,000  Level Washington Center
02:19PM 38.7931 -79.4539 18° North 465 535 37,000  Level Washington Center
02:20PM 38.9217 -79.4044 17° North 470 541 37,000  Level Washington Center
02:24PM 39.4106 -79.2128 17° North 478 550 37,000  Level Cleveland Center
02:25PM 39.5350 -79.1647 17° North 478 550 37,000  Level Cleveland Center
02:26PM 39.6617 -79.1161 16° North 478 550 37,000  Level Cleveland Center
02:27PM 39.7881 -79.0675 16° North 478 550 37,000  Level Cleveland Center
02:28PM 39.9125 -79.0158 18° North 473 544 37,000  Level Cleveland Center
02:29PM 40.0411 -78.9642 17° North 473 544 37,000  Level Cleveland Center
02:30PM 40.1633 -78.9150 17° North 467 537 37,000 -420 Level Cleveland Center
02:31PM 40.2897 -78.8628 17° North 467 537 36,200 -900 Descending Cleveland Center
02:32PM 40.4161 -78.8133 17° North 467 537 35,300 -600 Descending Cleveland Center
02:33PM 40.5447 -78.7606 17° North 467 537 35,000 -180 Descending Cleveland Center
02:34PM 40.6669 -78.7133 16° North 472 543 35,000  Level Cleveland Center
02:35PM 40.7911 -78.6606 18° North 466 536 35,000 -120 Level Cleveland Center
02:36PM 40.9050 -78.6161 16° North 466 536 34,800 -600 Descending Cleveland Center
02:37PM 41.0292 -78.5656 17° North 466 536 33,800 -960 Descending Cleveland Center
02:38PM 41.1553 -78.5119 18° North 471 542 32,900 -960 Descending Cleveland Center
02:39PM 41.2794 -78.4583 18° North 471 542 31,900 -1,140 Descending Cleveland Center
02:40PM 41.4119 -78.4042 17° North 471 542 30,700 -1,140 Descending Cleveland Center
02:41PM 41.5278 -78.3558 17° North 452 520 29,700 -1,020 Descending Cleveland Center
02:42PM 41.6475 -78.3044 18° North 447 514 28,700 -1,380 Descending Cleveland Center
02:43PM 41.7592 -78.2561 18° North 431 496 27,000 -1,380 Descending Cleveland Center
02:44PM 41.8689 -78.2131 16° North 419 482 26,000 -1,260 Descending Cleveland Center
02:45PM 41.9764 -78.1672 18° North 407 468 24,500 -1,980 Descending Cleveland Center
02:46PM 42.0878 -78.1208 17° North 407 468 22,100 -2,340 Descending Cleveland Center
02:47PM 42.1953 -78.0747 18° North 401 461 19,900 -2,160 Descending Cleveland Center
02:48PM 42.3028 -78.0283 18° North 401 461 17,800 -2,220 Descending Cleveland Center
02:49PM 42.3606 -78.0008 19° North 394 453 16,500 -2,220 Descending Cleveland Center
02:49PM 42.4058 -77.9819 17° North 396 456 15,600 -2,100 Descending Cleveland Center
02:50PM 42.4700 -77.9569 16° North 380 437 14,200 -2,220 Descending Cleveland Center
02:50PM 42.5050 -77.9414 18° North 391 450 13,400 -2,100 Descending Cleveland Center
02:51PM 42.5650 -77.9161 17° North 368 423 12,300 -1,920 Descending Cleveland Center
02:51PM 42.6044 -77.9117 North 379 436 11,500 -1,800 Descending Cleveland Center
02:52PM 42.6567 -77.9153 357° North 354 407 10,700 -1,140 Descending Cleveland Center
02:52PM 42.6919 -77.9108 North 362 417 10,400 -900 Descending Cleveland Center
02:53PM 42.7442 -77.9172 355° North 320 368 9,800 -1,320 Descending Cleveland Center
02:53PM 42.7881 -77.9208 357° North 333 383 9,100 -1,440 Descending Cleveland Center
02:54PM 42.8297 -77.9247 356° North 302 348 8,400 -1,320 Descending Cleveland Center
02:54PM 42.8756 -77.9228 North 313 360 7,800 -1,440 Descending Cleveland Center
02:55PM 42.9069 -77.9244 358° North 298 343 7,100 -1,440 Descending Cleveland Center
02:55PM 42.9486 -77.9253 359° North 300 345 6,400 -1,140 Descending Cleveland Center
02:56PM 42.9883 -77.9267 359° North 292 336 6,000 -540 Descending Cleveland Center
02:56PM 43.0233 -77.9136 15° North 281 323 5,900  Descending Cleveland Center
02:57PM 43.0644 -77.8864 26° Northeast 278 320 6,000  Climbing Cleveland Center
02:57PM 43.0931 -77.8653 28° Northeast 268 308 5,900 -540 Descending Cleveland Center
02:58PM 43.1303 -77.8436 23° Northeast 264 304 5,500 -840 Descending Cleveland Center
02:58PM 43.1589 -77.8225 28° Northeast 268 308 5,100 -960 Descending Cleveland Center
02:59PM 43.2019 -77.7978 23° Northeast 261 300 4,500 -1,020 Descending Cleveland Center
03:00PM 43.2192 -77.7344 70° East 161 185 3,500 -1,080 Descending Cleveland Center
03:01PM 43.1928 -77.6786 123° Southeast 148 170 2,400 -960 Descending Cleveland Center
03:02PM 43.1631 -77.6514 146° Southeast 114 131 1,500 -900 Descending Cleveland Center
03:03PM 43.1261 -77.6731 203° Southwest 136 157 600 -900 Descending Cleveland Center